Time;durP1;ratioP1;P1;durP2;ratioP2;P2;SDS_P1;SDS_P2;PMS_P1;PMS_P2;Temp;Humidity;BMP_temperature;BMP_pressure;BME280_temperature;BME280_humidity;BME280_pressure;Samples;Min_cycle;Max_cycle;Signal;HPM_P1;HPM_P2
2023/06/27 00:00:36;;;;;;;7.30;5.00;;;18.20;99.90;;;;;;5057072;28;20020;-91
2023/06/27 00:03:02;;;;;;;7.80;4.75;;;18.20;99.90;;;;;;5058461;28;20051;-90
2023/06/27 00:05:30;;;;;;;9.73;5.65;;;18.20;99.90;;;;;;5064583;28;20025;-93
2023/06/27 00:07:56;;;;;;;11.02;5.22;;;18.10;99.90;;;;;;5059180;28;20025;-94
2023/06/27 00:10:21;;;;;;;8.95;4.88;;;18.10;99.90;;;;;;5055611;28;20039;-91
2023/06/27 00:12:47;;;;;;;11.75;5.90;;;18.10;99.90;;;;;;5055543;28;20024;-91
2023/06/27 00:15:13;;;;;;;8.35;4.38;;;18.00;99.90;;;;;;5055260;28;20502;-90
2023/06/27 00:17:40;;;;;;;10.35;5.13;;;17.90;99.90;;;;;;5055027;28;20123;-91
2023/06/27 00:20:09;;;;;;;10.18;4.43;;;17.90;99.90;;;;;;5054858;28;20028;-92
2023/06/27 00:22:39;;;;;;;10.02;5.15;;;17.90;99.90;;;;;;5075075;28;20017;-95
2023/06/27 00:25:06;;;;;;;8.40;5.50;;;17.90;99.90;;;;;;5086833;28;20463;-93
2023/06/27 00:27:31;;;;;;;7.10;4.68;;;17.90;99.90;;;;;;5057167;28;20086;-92
2023/06/27 00:29:57;;;;;;;6.72;4.70;;;17.80;99.90;;;;;;5058680;28;20060;-91
2023/06/27 00:32:23;;;;;;;10.32;4.43;;;17.80;99.90;;;;;;5058793;28;20024;-92
2023/06/27 00:34:49;;;;;;;7.30;4.20;;;17.80;99.90;;;;;;5058513;28;20028;-92
2023/06/27 00:37:14;;;;;;;8.30;4.60;;;17.80;99.90;;;;;;5058401;28;20024;-93
2023/06/27 00:39:43;;;;;;;5.82;4.47;;;17.80;99.90;;;;;;5071238;28;20188;-94
2023/06/27 00:42:09;;;;;;;6.63;4.10;;;17.70;99.90;;;;;;5065759;28;20120;-89
2023/06/27 00:44:35;;;;;;;6.13;4.60;;;17.70;99.90;;;;;;5058432;28;20064;-89
2023/06/27 00:47:01;;;;;;;8.38;4.72;;;17.70;99.90;;;;;;5058318;28;20028;-87
2023/06/27 00:49:27;;;;;;;8.13;4.93;;;17.70;99.90;;;;;;5075935;28;20074;-88
2023/06/27 00:51:54;;;;;;;8.65;4.47;;;17.70;99.90;;;;;;5058099;28;20365;-93
2023/06/27 00:54:21;;;;;;;6.22;3.88;;;17.70;99.90;;;;;;5058328;28;20017;-92
2023/06/27 00:56:49;;;;;;;10.45;4.70;;;17.60;99.90;;;;;;5075858;28;20017;-90
2023/06/27 00:59:15;;;;;;;9.73;4.55;;;17.60;99.90;;;;;;5058173;28;20098;-90
2023/06/27 01:01:40;;;;;;;8.43;4.60;;;17.60;99.90;;;;;;5058395;28;20543;-91
2023/06/27 01:04:06;;;;;;;6.97;5.05;;;17.60;99.90;;;;;;5075644;28;20488;-91
2023/06/27 01:06:54;;;;;;;9.43;4.78;;;17.50;99.90;;;;;;5057713;28;20067;-90
2023/06/27 01:09:28;;;;;;;6.82;4.70;;;17.60;99.90;;;;;;5058182;28;20111;-90
2023/06/27 01:12:03;;;;;;;7.22;4.25;;;17.50;99.90;;;;;;5057923;28;20047;-90
2023/06/27 01:14:32;;;;;;;5.07;4.00;;;17.50;99.90;;;;;;5057508;28;20021;-89
2023/06/27 01:16:59;;;;;;;5.00;4.13;;;17.50;99.90;;;;;;5075583;28;20032;-90
2023/06/27 01:19:28;;;;;;;7.57;4.65;;;17.50;99.90;;;;;;5075437;28;20111;-90
2023/06/27 01:22:01;;;;;;;8.50;4.60;;;17.50;99.90;;;;;;5075085;28;20481;-89
2023/06/27 01:24:27;;;;;;;5.00;3.88;;;17.50;99.90;;;;;;5057561;28;20130;-91
2023/06/27 01:26:53;;;;;;;5.82;4.07;;;17.50;99.90;;;;;;5055565;28;20048;-91
2023/06/27 01:29:18;;;;;;;9.10;4.57;;;17.40;99.90;;;;;;5073738;28;20040;-90
2023/06/27 01:32:02;;;;;;;6.88;4.38;;;17.40;99.90;;;;;;5075297;28;20016;-90
2023/06/27 01:34:36;;;;;;;7.63;4.15;;;17.40;99.90;;;;;;5057665;28;20381;-90
2023/06/27 01:37:11;;;;;;;9.88;4.13;;;17.40;99.90;;;;;;5057557;28;20496;-89
2023/06/27 01:39:51;;;;;;;10.48;4.45;;;17.40;99.90;;;;;;5074871;28;20036;-89
2023/06/27 01:42:26;;;;;;;7.50;4.65;;;17.40;99.90;;;;;;5057593;28;20021;-91
2023/06/27 01:44:53;;;;;;;8.25;4.15;;;17.30;99.90;;;;;;5057445;28;20028;-91
2023/06/27 01:47:21;;;;;;;7.15;4.22;;;17.30;99.90;;;;;;5057237;28;20074;-91
2023/06/27 01:49:47;;;;;;;5.05;4.10;;;17.30;99.90;;;;;;5057024;28;20032;-90
2023/06/27 01:52:13;;;;;;;10.55;4.38;;;17.30;99.90;;;;;;5057402;28;20503;-90
2023/06/27 01:54:41;;;;;;;5.53;4.07;;;17.20;99.90;;;;;;5089631;28;20039;-89
2023/06/27 01:57:07;;;;;;;6.10;4.13;;;17.20;99.90;;;;;;5066055;28;20025;-91
2023/06/27 01:59:32;;;;;;;7.30;4.15;;;17.20;99.90;;;;;;5057244;28;20032;-90
2023/06/27 02:01:58;;;;;;;10.30;4.43;;;17.20;99.90;;;;;;5056917;28;20020;-91
2023/06/27 02:04:24;;;;;;;8.93;4.20;;;17.20;99.90;;;;;;5063566;28;20032;-91
2023/06/27 02:06:50;;;;;;;6.40;3.78;;;17.20;99.90;;;;;;5059242;28;20031;-90
2023/06/27 02:09:15;;;;;;;8.13;4.55;;;17.20;99.90;;;;;;5057434;28;20021;-90
2023/06/27 02:11:41;;;;;;;6.65;3.80;;;17.10;99.90;;;;;;5056822;28;20032;-91
2023/06/27 02:14:06;;;;;;;6.38;3.83;;;17.10;99.90;;;;;;5057451;28;20507;-90
2023/06/27 02:16:32;;;;;;;5.40;3.92;;;17.10;99.90;;;;;;5056512;28;20476;-90
2023/06/27 02:18:58;;;;;;;5.78;3.90;;;17.10;99.90;;;;;;5056525;28;20036;-90
2023/06/27 02:21:23;;;;;;;9.85;4.18;;;17.10;99.90;;;;;;5056749;28;20024;-91
2023/06/27 02:23:49;;;;;;;5.53;3.72;;;17.10;99.90;;;;;;5056613;28;20024;-90
2023/06/27 02:26:15;;;;;;;7.82;4.15;;;17.10;99.90;;;;;;5056639;28;20048;-92
2023/06/27 02:28:40;;;;;;;5.75;3.80;;;17.10;99.90;;;;;;5074334;28;20071;-91
2023/06/27 02:31:06;;;;;;;9.35;4.32;;;17.10;99.90;;;;;;5056748;28;20021;-93
2023/06/27 02:33:31;;;;;;;6.82;4.15;;;17.00;99.90;;;;;;5056840;28;20031;-91
2023/06/27 02:35:57;;;;;;;8.07;3.38;;;17.10;99.90;;;;;;5055964;28;20081;-90
2023/06/27 02:38:23;;;;;;;4.82;3.72;;;17.00;99.90;;;;;;5057010;28;20032;-91
2023/06/27 02:40:48;;;;;;;5.88;3.50;;;17.00;99.90;;;;;;5055532;28;20058;-91
2023/06/27 02:43:14;;;;;;;5.07;3.75;;;17.00;99.90;;;;;;5056200;28;20029;-90
2023/06/27 02:45:40;;;;;;;7.22;3.92;;;17.00;99.90;;;;;;5056336;28;20039;-91
2023/06/27 02:48:07;;;;;;;6.20;3.65;;;17.00;99.90;;;;;;5056075;28;20059;-91
2023/06/27 02:50:32;;;;;;;9.43;3.30;;;17.00;99.90;;;;;;5073708;28;20515;-90
2023/06/27 02:52:58;;;;;;;6.97;3.70;;;17.00;99.90;;;;;;5076082;28;20025;-91
2023/06/27 02:55:23;;;;;;;6.68;4.55;;;17.00;99.90;;;;;;5056112;28;20044;-91
2023/06/27 02:57:49;;;;;;;7.57;4.75;;;17.00;99.90;;;;;;5055840;28;20032;-90
2023/06/27 03:00:15;;;;;;;8.20;3.92;;;17.00;99.90;;;;;;5055778;28;20021;-91
2023/06/27 03:02:41;;;;;;;10.77;4.63;;;17.00;99.90;;;;;;5056082;28;20033;-91
2023/06/27 03:05:07;;;;;;;6.97;3.78;;;17.00;99.90;;;;;;5073673;28;20028;-91
2023/06/27 03:07:32;;;;;;;7.85;3.92;;;17.00;99.90;;;;;;5055693;28;20035;-91
2023/06/27 03:09:58;;;;;;;6.60;3.95;;;17.00;99.90;;;;;;5055844;28;20485;-90
2023/06/27 03:12:24;;;;;;;7.15;3.88;;;17.10;99.90;;;;;;5056226;28;20504;-90
2023/06/27 03:14:49;;;;;;;7.35;3.50;;;17.10;99.90;;;;;;5056544;28;20032;-91
2023/06/27 03:17:15;;;;;;;11.48;4.50;;;17.20;99.90;;;;;;5056365;28;20031;-91
2023/06/27 03:19:40;;;;;;;5.65;3.75;;;17.20;99.90;;;;;;5056734;28;20043;-89
2023/06/27 03:22:06;;;;;;;5.40;3.80;;;17.20;99.90;;;;;;5056491;28;20020;-90
2023/06/27 03:24:32;;;;;;;8.68;4.22;;;17.30;99.90;;;;;;5074352;28;20029;-91
2023/06/27 03:26:58;;;;;;;7.18;4.20;;;17.30;99.90;;;;;;5056779;28;20583;-90
2023/06/27 03:29:23;;;;;;;8.98;4.13;;;17.40;99.90;;;;;;5074120;28;20052;-90
2023/06/27 03:31:50;;;;;;;6.25;3.50;;;17.40;99.90;;;;;;5057182;28;20481;-91
2023/06/27 03:34:16;;;;;;;7.65;3.92;;;17.40;99.90;;;;;;5068303;28;20024;-92
2023/06/27 03:36:42;;;;;;;5.22;3.58;;;17.40;99.90;;;;;;5079188;28;20009;-90
2023/06/27 03:39:07;;;;;;;9.13;3.60;;;17.50;99.90;;;;;;5077202;28;20044;-91
2023/06/27 03:41:33;;;;;;;7.75;3.33;;;17.50;99.90;;;;;;5060987;28;20032;-90
2023/06/27 03:43:59;;;;;;;7.40;3.28;;;17.60;99.90;;;;;;5058885;28;20025;-92
2023/06/27 03:46:24;;;;;;;6.57;3.17;;;17.70;99.90;;;;;;5055387;28;20112;-92
2023/06/27 03:48:54;;;;;;;5.97;3.60;;;17.70;99.90;;;;;;5056351;28;20020;-91
2023/06/27 03:51:19;;;;;;;9.13;3.60;;;17.90;99.90;;;;;;5055596;28;20127;-91
2023/06/27 03:53:47;;;;;;;5.50;3.15;;;17.90;99.90;;;;;;5055866;28;20052;-90
2023/06/27 03:56:12;;;;;;;5.43;3.30;;;18.00;99.90;;;;;;5073236;28;20084;-91
2023/06/27 03:58:38;;;;;;;6.38;2.92;;;18.10;99.90;;;;;;5055313;28;20033;-91
2023/06/27 04:01:03;;;;;;;7.70;3.10;;;18.30;99.90;;;;;;5073691;28;20025;-90
2023/06/27 04:03:29;;;;;;;8.65;2.50;;;18.40;99.90;;;;;;5061854;28;20035;-91
2023/06/27 04:05:55;;;;;;;5.20;3.00;;;18.50;99.90;;;;;;5060100;28;20028;-90
2023/06/27 04:08:20;;;;;;;5.45;3.40;;;18.80;99.90;;;;;;5080149;28;20097;-89
2023/06/27 04:10:46;;;;;;;3.78;2.55;;;19.10;99.90;;;;;;5080539;28;20364;-89
2023/06/27 04:13:12;;;;;;;7.60;3.08;;;19.40;99.90;;;;;;5064968;28;20115;-90
2023/06/27 04:15:39;;;;;;;4.13;3.40;;;19.50;99.90;;;;;;5077115;28;20086;-90
2023/06/27 04:18:08;;;;;;;10.07;3.03;;;19.60;99.90;;;;;;5058435;28;20093;-90
2023/06/27 04:20:35;;;;;;;9.35;3.45;;;19.70;99.90;;;;;;5076743;28;20047;-90
2023/06/27 04:23:01;;;;;;;11.63;3.33;;;19.80;99.90;;;;;;5059913;28;20043;-91
2023/06/27 04:25:32;;;;;;;8.18;3.25;;;19.80;99.90;;;;;;5058869;28;20055;-91
2023/06/27 04:27:58;;;;;;;5.72;3.38;;;19.90;99.90;;;;;;5058635;28;20488;-91
2023/06/27 04:30:24;;;;;;;5.35;3.15;;;19.90;99.90;;;;;;5063231;28;20037;-90
2023/06/27 04:32:49;;;;;;;8.95;4.07;;;19.90;99.90;;;;;;5059949;28;20112;-89
2023/06/27 04:35:18;;;;;;;9.32;3.60;;;19.90;99.90;;;;;;5060229;28;20031;-90
2023/06/27 04:37:44;;;;;;;5.53;3.40;;;19.90;99.90;;;;;;5057475;28;20119;-90
2023/06/27 04:40:10;;;;;;;7.32;4.30;;;19.90;99.90;;;;;;5058847;28;20048;-91
2023/06/27 04:42:37;;;;;;;3.85;2.95;;;20.00;99.90;;;;;;5076391;28;20027;-91
2023/06/27 04:45:02;;;;;;;4.65;3.22;;;20.00;99.90;;;;;;5058467;28;20055;-90
2023/06/27 04:47:28;;;;;;;6.88;3.25;;;20.10;99.90;;;;;;5058262;28;20025;-90
2023/06/27 04:49:54;;;;;;;5.03;3.03;;;20.10;99.90;;;;;;5058575;28;20024;-90
2023/06/27 04:52:19;;;;;;;4.25;3.05;;;20.20;99.90;;;;;;5058442;28;20483;-91
2023/06/27 04:54:49;;;;;;;11.13;3.05;;;20.20;99.90;;;;;;5058374;28;20031;-90
2023/06/27 04:57:15;;;;;;;5.57;4.00;;;20.30;99.90;;;;;;5058615;28;20027;-91
2023/06/27 04:59:42;;;;;;;4.05;2.92;;;20.40;99.90;;;;;;5058005;28;20508;-91
2023/06/27 05:02:07;;;;;;;6.05;3.47;;;20.50;99.90;;;;;;5057876;28;20857;-91
2023/06/27 05:04:34;;;;;;;5.97;3.83;;;20.50;99.90;;;;;;5057759;28;20025;-90
2023/06/27 05:07:00;;;;;;;6.20;3.75;;;20.60;99.90;;;;;;5076022;28;20025;-90
2023/06/27 05:09:25;;;;;;;10.35;3.30;;;20.60;99.90;;;;;;5057704;28;20035;-91
2023/06/27 05:11:51;;;;;;;7.85;3.63;;;20.50;99.90;;;;;;5057772;28;20392;-91
2023/06/27 05:14:17;;;;;;;8.77;3.70;;;20.50;99.90;;;;;;5055814;28;20080;-90
2023/06/27 05:16:43;;;;;;;9.55;3.85;;;20.30;99.90;;;;;;5057743;28;20472;-91
2023/06/27 05:19:08;;;;;;;13.23;4.18;;;20.20;99.90;;;;;;5075665;28;20112;-91
2023/06/27 05:21:34;;;;;;;5.50;3.22;;;20.10;99.90;;;;;;5057660;28;20056;-90
2023/06/27 05:23:59;;;;;;;8.27;3.13;;;20.00;99.90;;;;;;5057640;28;20032;-89
2023/06/27 05:26:25;;;;;;;5.80;3.80;;;19.90;99.90;;;;;;5057433;28;20574;-88
2023/06/27 05:28:51;;;;;;;11.07;4.65;;;19.80;99.90;;;;;;5057716;28;20546;-89
2023/06/27 05:31:16;;;;;;;9.90;4.03;;;19.80;99.90;;;;;;5057589;28;20078;-88
2023/06/27 05:33:42;;;;;;;10.35;3.92;;;19.70;99.90;;;;;;5057326;28;20428;-89
2023/06/27 05:36:08;;;;;;;8.98;3.55;;;19.60;99.90;;;;;;5075303;28;20028;-88
2023/06/27 05:38:33;;;;;;;7.45;4.13;;;19.60;99.90;;;;;;5057354;28;20050;-87
2023/06/27 05:40:59;;;;;;;11.48;5.45;;;19.50;99.90;;;;;;5057499;28;20033;-88
2023/06/27 05:43:25;;;;;;;11.65;4.38;;;19.40;99.90;;;;;;5057362;28;20032;-88
2023/06/27 05:45:50;;;;;;;8.73;4.28;;;19.20;99.90;;;;;;5057245;28;20021;-88
2023/06/27 05:48:16;;;;;;;7.78;4.43;;;19.20;99.90;;;;;;5057651;28;20036;-88
2023/06/27 05:50:42;;;;;;;6.78;4.68;;;19.10;99.90;;;;;;5057214;28;20055;-89
2023/06/27 05:53:08;;;;;;;13.40;5.00;;;19.00;99.90;;;;;;5074855;28;20424;-89
2023/06/27 05:55:33;;;;;;;7.47;4.15;;;18.90;99.90;;;;;;5056666;28;20024;-89
2023/06/27 05:57:59;;;;;;;11.93;4.97;;;18.80;99.90;;;;;;5074472;28;20473;-88
2023/06/27 06:00:25;;;;;;;11.98;5.28;;;18.80;99.90;;;;;;5056307;28;20028;-88
2023/06/27 06:02:50;;;;;;;8.18;5.05;;;18.80;99.90;;;;;;5056956;28;20028;-89
2023/06/27 06:05:17;;;;;;;10.13;4.82;;;18.90;99.90;;;;;;5056827;28;20051;-87
2023/06/27 06:07:43;;;;;;;9.68;4.45;;;19.00;99.90;;;;;;5057255;28;20025;-88
2023/06/27 06:10:11;;;;;;;8.93;4.68;;;19.10;99.90;;;;;;5057657;28;20032;-89
2023/06/27 06:12:37;;;;;;;5.85;4.10;;;19.10;99.90;;;;;;5056135;28;20107;-89
2023/06/27 06:15:04;;;;;;;10.70;5.18;;;19.20;99.90;;;;;;5056867;28;20027;-89
2023/06/27 06:17:29;;;;;;;7.28;4.88;;;19.40;99.90;;;;;;5056458;28;20115;-89
2023/06/27 06:19:55;;;;;;;9.48;5.25;;;19.60;99.90;;;;;;5056505;28;20067;-88
2023/06/27 06:22:21;;;;;;;8.63;5.05;;;19.90;99.90;;;;;;5056177;28;20450;-88
2023/06/27 06:24:46;;;;;;;13.60;4.47;;;20.00;99.90;;;;;;5085141;28;20029;-89
2023/06/27 06:27:12;;;;;;;11.35;5.63;;;20.20;99.90;;;;;;5088353;28;20043;-88
2023/06/27 06:29:38;;;;;;;6.28;4.75;;;20.20;99.90;;;;;;5054338;28;20481;-88
2023/06/27 06:32:04;;;;;;;8.93;4.80;;;20.20;99.90;;;;;;5056687;28;20025;-89
2023/06/27 06:34:29;;;;;;;8.35;4.45;;;20.30;99.90;;;;;;5055566;28;20473;-89
2023/06/27 06:36:55;;;;;;;5.60;3.97;;;20.50;99.90;;;;;;5056436;28;20119;-88
2023/06/27 06:39:21;;;;;;;7.80;4.25;;;20.70;99.90;;;;;;5056341;28;20036;-88
2023/06/27 06:41:46;;;;;;;7.03;3.97;;;20.90;99.90;;;;;;5055663;28;20021;-88
2023/06/27 06:44:12;;;;;;;8.57;4.13;;;21.00;99.90;;;;;;5073209;28;20111;-89
2023/06/27 06:46:38;;;;;;;8.95;5.05;;;21.20;99.90;;;;;;5054788;28;20027;-88
2023/06/27 06:49:04;;;;;;;9.43;4.05;;;21.50;99.90;;;;;;5055331;28;20050;-88
2023/06/27 06:51:29;;;;;;;5.97;3.88;;;21.80;99.90;;;;;;5055492;28;20499;-89
2023/06/27 06:53:55;;;;;;;7.53;4.30;;;22.10;99.90;;;;;;5055709;28;20037;-88
2023/06/27 06:56:21;;;;;;;6.15;4.07;;;22.40;99.90;;;;;;5073930;28;20031;-88
2023/06/27 06:58:47;;;;;;;5.18;4.07;;;22.50;99.90;;;;;;5055187;28;20032;-89
2023/06/27 07:01:12;;;;;;;7.72;4.70;;;22.60;99.90;;;;;;5055996;28;20013;-89
2023/06/27 07:03:38;;;;;;;10.30;4.47;;;22.80;99.90;;;;;;5074060;28;20036;-90
2023/06/27 07:06:04;;;;;;;8.00;4.82;;;23.10;99.90;;;;;;5056755;28;20031;-88
2023/06/27 07:08:30;;;;;;;12.45;5.20;;;23.50;99.90;;;;;;5056294;28;20039;-89
2023/06/27 07:10:56;;;;;;;10.98;5.78;;;24.60;99.90;;;;;;5066134;28;20017;-90
2023/06/27 07:13:21;;;;;;;7.38;4.57;;;25.60;99.90;;;;;;5076629;28;20032;-91
2023/06/27 07:15:48;;;;;;;8.23;4.75;;;26.10;99.90;;;;;;5074237;28;20032;-89
2023/06/27 07:18:13;;;;;;;11.20;5.18;;;26.20;99.90;;;;;;5055467;28;20126;-89
2023/06/27 07:20:39;;;;;;;13.70;4.85;;;26.80;99.00;;;;;;5072799;28;20049;-90
2023/06/27 07:23:05;;;;;;;17.20;6.28;;;27.70;95.70;;;;;;5055529;28;20121;-90
2023/06/27 07:25:30;;;;;;;9.80;4.70;;;28.40;92.10;;;;;;5073225;28;20098;-90
2023/06/27 07:27:56;;;;;;;15.20;5.50;;;29.10;84.50;;;;;;5073412;28;20108;-90
2023/06/27 07:30:22;;;;;;;8.40;4.63;;;29.30;79.00;;;;;;5073200;28;20056;-90
2023/06/27 07:32:47;;;;;;;8.93;4.80;;;29.30;82.10;;;;;;5055252;28;20025;-90
2023/06/27 07:35:13;;;;;;;8.07;5.05;;;29.40;82.50;;;;;;5054355;28;20071;-87
2023/06/27 07:37:39;;;;;;;11.32;4.75;;;29.80;79.60;;;;;;5054484;28;20032;-88
2023/06/27 07:40:07;;;;;;;7.93;5.20;;;30.10;77.00;;;;;;5055213;28;20040;-88
2023/06/27 07:42:35;;;;;;;12.55;5.80;;;30.30;75.80;;;;;;5055313;28;20067;-88
2023/06/27 07:45:01;;;;;;;21.67;6.03;;;30.50;72.80;;;;;;5055416;28;20024;-88
2023/06/27 07:47:27;;;;;;;9.43;4.65;;;30.70;72.60;;;;;;5055425;28;20024;-89
2023/06/27 07:49:52;;;;;;;7.30;5.28;;;31.20;69.70;;;;;;5055544;28;20032;-88
2023/06/27 07:52:18;;;;;;;7.57;4.93;;;31.60;68.60;;;;;;5055477;28;20066;-89
2023/06/27 07:54:44;;;;;;;7.18;5.18;;;31.70;63.90;;;;;;5055135;28;20028;-88
2023/06/27 07:57:09;;;;;;;14.07;5.15;;;31.80;64.50;;;;;;5054897;28;20615;-89
2023/06/27 07:59:35;;;;;;;5.25;3.83;;;31.40;65.10;;;;;;5055218;28;20100;-89
2023/06/27 08:02:00;;;;;;;14.82;4.55;;;31.00;64.10;;;;;;5055240;28;20021;-88
2023/06/27 08:04:26;;;;;;;10.80;4.63;;;30.90;65.00;;;;;;5055097;28;20447;-88
2023/06/27 08:06:53;;;;;;;11.90;4.78;;;30.30;65.70;;;;;;5063310;28;20021;-89
2023/06/27 08:09:20;;;;;;;7.30;4.90;;;29.80;68.20;;;;;;5054553;28;20052;-89
2023/06/27 08:11:46;;;;;;;6.85;4.38;;;29.00;66.80;;;;;;5072771;28;20027;-90
2023/06/27 08:14:11;;;;;;;10.93;4.55;;;28.40;69.40;;;;;;5073084;28;20366;-89
2023/06/27 08:16:37;;;;;;;8.30;4.53;;;27.90;70.30;;;;;;5055032;28;20032;-91
2023/06/27 08:19:02;;;;;;;6.63;4.65;;;27.60;73.80;;;;;;5054944;28;20509;-90
2023/06/27 08:21:28;;;;;;;10.45;4.40;;;27.20;76.30;;;;;;5055017;28;20039;-91
2023/06/27 08:23:54;;;;;;;12.00;5.03;;;26.70;77.00;;;;;;5054744;28;20025;-91
2023/06/27 08:26:20;;;;;;;7.90;5.25;;;26.40;78.30;;;;;;5051563;28;20117;-89
2023/06/27 08:28:46;;;;;;;7.85;5.15;;;26.20;80.00;;;;;;5053878;28;20036;-89
2023/06/27 08:31:12;;;;;;;8.07;5.13;;;26.20;81.50;;;;;;5051515;28;20115;-91
2023/06/27 08:33:39;;;;;;;9.65;5.40;;;26.40;82.80;;;;;;5051678;28;20232;-90
2023/06/27 08:36:08;;;;;;;7.65;4.68;;;26.70;82.10;;;;;;5051954;28;20078;-88
2023/06/27 08:38:34;;;;;;;13.68;5.25;;;27.60;80.30;;;;;;5053100;28;20033;-88
2023/06/27 08:41:01;;;;;;;9.15;4.85;;;28.40;75.80;;;;;;5064767;28;20025;-88
2023/06/27 08:43:27;;;;;;;6.32;4.20;;;28.90;77.00;;;;;;5055092;28;20053;-91
2023/06/27 08:45:54;;;;;;;6.10;4.38;;;29.60;74.50;;;;;;5051694;28;20032;-89
2023/06/27 08:48:20;;;;;;;7.13;4.65;;;30.40;71.80;;;;;;5053750;28;20052;-89
2023/06/27 08:50:50;;;;;;;7.13;4.60;;;30.60;71.00;;;;;;5055308;28;20116;-89
2023/06/27 08:53:17;;;;;;;5.30;4.20;;;30.70;69.30;;;;;;5055945;28;20028;-88
2023/06/27 08:55:55;;;;;;;12.77;4.55;;;30.80;68.80;;;;;;5054616;28;20113;-89
2023/06/27 08:58:25;;;;;;;9.13;4.60;;;30.80;68.50;;;;;;5055008;28;20082;-90
2023/06/27 09:00:53;;;;;;;8.55;5.88;;;30.90;68.60;;;;;;5055057;28;20025;-90
2023/06/27 09:03:19;;;;;;;7.75;4.50;;;31.30;67.60;;;;;;5055155;28;20021;-88
2023/06/27 09:05:47;;;;;;;11.68;4.60;;;31.50;68.60;;;;;;5054672;28;20029;-88
2023/06/27 09:08:13;;;;;;;8.77;4.97;;;31.10;66.60;;;;;;5056015;28;20021;-88
2023/06/27 09:10:40;;;;;;;9.40;4.38;;;30.90;67.10;;;;;;5053950;28;20048;-90
2023/06/27 09:13:06;;;;;;;6.95;4.05;;;31.10;68.50;;;;;;5054317;28;20029;-89
2023/06/27 09:15:32;;;;;;;8.30;4.40;;;31.40;67.30;;;;;;5054051;28;20025;-88
2023/06/27 09:17:57;;;;;;;5.75;4.28;;;31.30;66.60;;;;;;5054373;28;20401;-89
2023/06/27 09:20:23;;;;;;;6.30;4.57;;;31.40;66.80;;;;;;5054101;28;20029;-89
2023/06/27 09:22:50;;;;;;;7.70;4.50;;;31.30;67.10;;;;;;5054753;28;20561;-89
2023/06/27 09:25:20;;;;;;;5.63;4.72;;;30.70;67.20;;;;;;5061653;28;20551;-89
2023/06/27 09:27:46;;;;;;;9.43;4.60;;;30.00;67.90;;;;;;5057173;28;20024;-87
2023/06/27 09:30:12;;;;;;;7.13;4.60;;;29.50;69.60;;;;;;5057173;28;20032;-88
2023/06/27 09:32:52;;;;;;;5.63;4.55;;;29.00;71.20;;;;;;5057490;28;20094;-90
2023/06/27 09:35:19;;;;;;;7.35;4.82;;;28.50;73.90;;;;;;5057766;28;20025;-92
2023/06/27 09:37:44;;;;;;;10.15;4.53;;;27.90;75.50;;;;;;5057216;28;20526;-89
2023/06/27 09:40:18;;;;;;;7.97;4.55;;;27.40;77.60;;;;;;5057476;28;20119;-91
2023/06/27 09:42:49;;;;;;;7.00;4.60;;;26.90;80.50;;;;;;5073395;28;20050;-88
2023/06/27 09:45:14;;;;;;;7.18;5.13;;;26.40;84.50;;;;;;5073546;28;20104;-88
2023/06/27 09:47:41;;;;;;;7.25;5.13;;;26.10;89.90;;;;;;5057102;28;20111;-89
2023/06/27 09:50:07;;;;;;;7.15;4.53;;;25.90;91.90;;;;;;5057607;28;20476;-89
2023/06/27 09:52:33;;;;;;;7.50;4.30;;;25.80;88.20;;;;;;5057404;28;20025;-89
2023/06/27 09:54:59;;;;;;;5.95;4.15;;;25.60;84.30;;;;;;5057299;28;20056;-89
2023/06/27 09:57:26;;;;;;;7.47;4.40;;;25.40;85.10;;;;;;5057027;28;20062;-89
2023/06/27 09:59:58;;;;;;;10.48;4.63;;;25.20;85.90;;;;;;5056481;28;20056;-89
2023/06/27 10:02:31;;;;;;;4.78;4.07;;;25.00;89.00;;;;;;5062029;28;20021;-89
2023/06/27 10:04:58;;;;;;;5.75;4.35;;;25.00;92.30;;;;;;5057440;28;20029;-89
2023/06/27 10:07:24;;;;;;;8.13;5.22;;;25.20;93.80;;;;;;5074261;28;20025;-89
2023/06/27 10:09:50;;;;;;;10.60;5.40;;;25.50;94.90;;;;;;5056233;28;20670;-88
2023/06/27 10:12:17;;;;;;;6.15;4.28;;;25.90;95.10;;;;;;5074571;28;20029;-90
2023/06/27 10:14:43;;;;;;;11.65;4.85;;;26.30;94.60;;;;;;5055972;28;20025;-88
2023/06/27 10:17:10;;;;;;;6.13;4.32;;;26.70;92.40;;;;;;5073755;28;20024;-88
2023/06/27 10:19:37;;;;;;;5.93;5.00;;;27.10;92.00;;;;;;5056058;28;20036;-88
2023/06/27 10:22:10;;;;;;;5.82;4.75;;;27.40;91.50;;;;;;5074150;28;20031;-87
2023/06/27 10:24:40;;;;;;;9.18;4.60;;;27.60;89.10;;;;;;5055792;28;20028;-89
2023/06/27 10:27:07;;;;;;;8.07;4.05;;;27.80;89.90;;;;;;5074137;28;20078;-89
2023/06/27 10:29:38;;;;;;;7.65;4.82;;;28.10;88.90;;;;;;5055480;28;20024;-89
2023/06/27 10:32:07;;;;;;;6.70;4.00;;;28.30;86.40;;;;;;5056037;28;20401;-88
2023/06/27 10:34:39;;;;;;;5.88;3.95;;;28.40;83.60;;;;;;5055679;28;20031;-88
2023/06/27 10:37:05;;;;;;;5.28;4.35;;;28.40;80.40;;;;;;5055207;28;20134;-89
2023/06/27 10:39:36;;;;;;;6.90;4.28;;;28.20;81.80;;;;;;5055742;28;20032;-88
2023/06/27 10:42:06;;;;;;;7.35;4.07;;;28.20;83.40;;;;;;5055211;28;20056;-87
2023/06/27 10:44:56;;;;;;;6.75;4.60;;;28.30;84.70;;;;;;5055386;28;20033;-88
2023/06/27 10:47:25;;;;;;;8.07;4.45;;;28.30;83.50;;;;;;5074814;28;20024;-87
2023/06/27 10:49:53;;;;;;;9.13;4.55;;;28.30;83.30;;;;;;5079503;28;20013;-88
2023/06/27 10:52:24;;;;;;;9.50;4.40;;;28.40;82.10;;;;;;5070079;28;20509;-88
2023/06/27 10:55:15;;;;;;;8.60;4.60;;;28.50;81.00;;;;;;5065938;28;20303;-88
2023/06/27 10:57:51;;;;;;;4.93;3.55;;;28.40;78.90;;;;;;5079202;28;20086;-87
2023/06/27 11:00:33;;;;;;;10.07;4.05;;;28.30;79.40;;;;;;5073181;28;20084;-88
2023/06/27 11:03:03;;;;;;;6.18;4.43;;;28.10;80.10;;;;;;5056247;28;20036;-89
2023/06/27 11:05:53;;;;;;;6.40;4.22;;;28.10;81.50;;;;;;5056221;28;20074;-88
2023/06/27 11:08:20;;;;;;;10.07;4.55;;;28.20;80.40;;;;;;5055179;28;20536;-88
2023/06/27 11:10:59;;;;;;;5.57;3.85;;;28.20;78.90;;;;;;5054056;28;20031;-88
2023/06/27 11:13:27;;;;;;;6.80;4.65;;;28.20;78.00;;;;;;5054764;28;20170;-89
2023/06/27 11:15:54;;;;;;;7.35;4.88;;;27.90;78.20;;;;;;5054921;28;20028;-89
2023/06/27 11:18:21;;;;;;;7.97;4.03;;;27.70;79.10;;;;;;5055037;28;20405;-88
2023/06/27 11:20:49;;;;;;;10.50;4.78;;;27.40;79.60;;;;;;5072750;28;20029;-89
2023/06/27 11:23:16;;;;;;;6.82;4.47;;;27.10;81.50;;;;;;5054720;28;20070;-89
2023/06/27 11:25:44;;;;;;;25.98;20.85;;;26.90;83.00;;;;;;5054375;28;20044;-89
2023/06/27 11:28:17;;;;;;;20.38;12.25;;;26.70;83.80;;;;;;5054745;28;20033;-89
2023/06/27 11:30:43;;;;;;;17.95;12.50;;;26.70;82.80;;;;;;5054308;28;20074;-90
2023/06/27 11:33:09;;;;;;;12.35;7.20;;;26.70;81.20;;;;;;5055109;28;20142;-90
2023/06/27 11:35:37;;;;;;;12.68;9.25;;;26.80;80.90;;;;;;5055290;28;20017;-89
2023/06/27 11:38:08;;;;;;;6.18;4.38;;;26.60;82.40;;;;;;5054755;28;20036;-89
2023/06/27 11:40:34;;;;;;;8.05;4.55;;;26.50;80.60;;;;;;5072641;28;20029;-89
2023/06/27 11:43:06;;;;;;;6.13;3.83;;;26.50;79.90;;;;;;5055454;28;20109;-90
2023/06/27 11:45:33;;;;;;;6.07;3.70;;;26.40;79.10;;;;;;5055135;28;20035;-88
2023/06/27 11:48:00;;;;;;;7.70;4.25;;;26.30;78.70;;;;;;5055120;28;20024;-90
2023/06/27 11:50:26;;;;;;;6.10;3.83;;;26.20;79.90;;;;;;5055176;28;20163;-88
2023/06/27 11:52:54;;;;;;;7.50;4.15;;;26.10;81.60;;;;;;5054774;28;20443;-89
2023/06/27 11:55:20;;;;;;;9.75;4.07;;;25.90;81.70;;;;;;5054173;28;20039;-88
2023/06/27 11:57:58;;;;;;;11.90;4.10;;;25.90;82.90;;;;;;5055642;28;20024;-89
2023/06/27 12:00:31;;;;;;;5.63;4.20;;;25.90;84.80;;;;;;5061033;28;20043;-89
2023/06/27 12:03:03;;;;;;;6.57;4.85;;;25.90;85.60;;;;;;5055676;28;20020;-90
2023/06/27 12:05:29;;;;;;;6.82;5.72;;;25.70;87.00;;;;;;5054891;28;20033;-90
2023/06/27 12:07:55;;;;;;;7.13;5.25;;;25.70;87.10;;;;;;5054957;28;20024;-90
2023/06/27 12:10:21;;;;;;;12.10;5.93;;;25.50;88.30;;;;;;5054834;28;20078;-88
2023/06/27 12:12:49;;;;;;;7.95;4.28;;;25.50;89.00;;;;;;5054236;28;20033;-90
2023/06/27 12:15:15;;;;;;;6.82;4.35;;;25.40;90.20;;;;;;5054578;28;20485;-89
2023/06/27 12:17:57;;;;;;;7.40;4.75;;;25.40;90.50;;;;;;5072182;28;20024;-90
2023/06/27 12:20:23;;;;;;;6.03;4.57;;;25.30;91.10;;;;;;5054012;28;20028;-88
2023/06/27 12:22:49;;;;;;;5.53;4.00;;;25.30;91.80;;;;;;5056265;28;20021;-89
2023/06/27 12:25:14;;;;;;;9.10;5.25;;;25.20;93.90;;;;;;5058181;28;20508;-87
2023/06/27 12:27:40;;;;;;;6.18;4.68;;;25.10;92.80;;;;;;5075077;28;20484;-87
2023/06/27 12:30:09;;;;;;;5.43;4.25;;;25.00;92.30;;;;;;5057214;28;20021;-89
2023/06/27 12:32:35;;;;;;;6.32;4.85;;;24.80;92.50;;;;;;5058918;28;20549;-88
2023/06/27 12:35:01;;;;;;;9.43;4.18;;;24.60;93.60;;;;;;5041632;28;20453;-89
2023/06/27 12:37:28;;;;;;;6.47;4.45;;;24.50;94.30;;;;;;5057301;28;20044;-88
2023/06/27 12:39:54;;;;;;;6.78;5.00;;;24.30;94.60;;;;;;5075624;28;20040;-89
2023/06/27 12:42:20;;;;;;;5.75;4.45;;;24.30;94.20;;;;;;5057353;28;20020;-88
2023/06/27 12:44:46;;;;;;;5.95;4.22;;;24.20;94.70;;;;;;5076447;28;20039;-89